Time;durP1;ratioP1;P1;durP2;ratioP2;P2;SDS_P1;SDS_P2;PMS_P1;PMS_P2;Temp;Humidity;BMP_temperature;BMP_pressure;BME280_temperature;BME280_humidity;BME280_pressure;Samples;Min_cycle;Max_cycle;Signal;HPM_P1;HPM_P2
2022/11/16 00:01:34;;;;;;;4.45;3.53;;;;;17.80;99649.00;;;;5053090;28;20238;-84
2022/11/16 00:04:03;;;;;;;7.60;3.22;;;;;17.80;99643.00;;;;5057311;28;20202;-85
2022/11/16 00:06:30;;;;;;;5.25;3.42;;;;;17.80;99645.00;;;;5067335;28;20538;-84
2022/11/16 00:11:48;;;;;;;4.60;3.95;;;;;17.80;99657.00;;;;5061046;28;20217;-84
2022/11/16 00:14:15;;;;;;;4.15;3.58;;;;;17.80;99650.00;;;;5070475;28;20207;-84
2022/11/16 00:16:43;;;;;;;5.28;3.83;;;;;17.80;99649.00;;;;5061226;28;20195;-84
2022/11/16 00:19:11;;;;;;;4.68;3.72;;;;;17.80;99646.00;;;;5072355;28;20202;-83
2022/11/16 00:21:39;;;;;;;3.72;3.42;;;;;17.80;99640.00;;;;5071407;28;20222;-84
2022/11/16 00:24:07;;;;;;;4.82;4.03;;;;;17.80;99647.00;;;;5072527;28;20558;-84
2022/11/16 00:26:35;;;;;;;3.88;3.47;;;;;17.80;99643.00;;;;5061960;28;21083;-84
2022/11/16 00:29:03;;;;;;;4.00;3.58;;;;;17.80;99638.00;;;;5051363;28;20202;-84
2022/11/16 00:31:31;;;;;;;4.18;3.78;;;;;17.80;99641.00;;;;5057970;28;20205;-83
2022/11/16 00:33:58;;;;;;;5.45;3.72;;;;;17.80;99640.00;;;;5069440;28;20192;-84
2022/11/16 00:36:25;;;;;;;3.92;3.50;;;;;17.80;99647.00;;;;5061169;28;20223;-84
2022/11/16 00:38:53;;;;;;;5.75;3.67;;;;;17.90;99639.00;;;;5061261;28;20203;-84
2022/11/16 00:41:21;;;;;;;5.70;4.00;;;;;17.90;99639.00;;;;5066555;28;20288;-84
2022/11/16 00:43:48;;;;;;;4.43;4.00;;;;;17.90;99635.00;;;;5061482;28;20201;-84
2022/11/16 00:46:17;;;;;;;3.60;3.28;;;;;17.90;99629.00;;;;5063084;28;20550;-84
2022/11/16 00:48:44;;;;;;;4.07;3.67;;;;;17.90;99629.00;;;;5060266;28;20276;-84
2022/11/16 00:51:11;;;;;;;4.07;3.65;;;;;17.90;99625.00;;;;5070579;28;20676;-84
2022/11/16 00:53:39;;;;;;;4.78;4.15;;;;;17.90;99621.00;;;;5058461;28;20204;-84
2022/11/16 00:56:07;;;;;;;4.13;3.65;;;;;17.90;99636.00;;;;5052076;28;20572;-85
2022/11/16 00:58:34;;;;;;;5.13;3.60;;;;;17.90;99636.00;;;;5060374;28;20199;-85
2022/11/16 01:01:05;;;;;;;3.50;3.20;;;;;17.90;99634.00;;;;5050333;28;20226;-83
2022/11/16 01:03:34;;;;;;;4.65;3.88;;;;;17.90;99633.00;;;;5050634;28;20203;-83
2022/11/16 01:06:03;;;;;;;4.65;4.15;;;;;17.90;99622.00;;;;5062426;28;20195;-83
2022/11/16 01:08:30;;;;;;;5.45;3.75;;;;;17.90;99630.00;;;;5068688;28;20194;-84
2022/11/16 01:12:07;;;;;;;4.07;3.63;;;;;17.90;99636.00;;;;5064294;28;20207;-83
2022/11/16 01:13:45;;;;;;;4.00;3.60;;;;;17.90;99623.00;;;;5056814;28;20223;-83
2022/11/16 01:16:15;;;;;;;3.45;3.10;;;;;17.90;99616.00;;;;5065944;28;20619;-84
2022/11/16 01:18:43;;;;;;;4.30;3.90;;;;;17.90;99622.00;;;;5051570;28;20576;-84
2022/11/16 01:21:11;;;;;;;3.72;3.40;;;;;17.90;99615.00;;;;5048539;28;20224;-83
2022/11/16 01:23:38;;;;;;;3.95;3.55;;;;;18.00;99612.00;;;;5050291;28;20207;-83
2022/11/16 01:26:06;;;;;;;3.85;3.47;;;;;18.00;99613.00;;;;5050447;28;20202;-84
2022/11/16 01:28:33;;;;;;;4.18;3.80;;;;;18.00;99605.00;;;;5054885;28;20199;-83
2022/11/16 01:31:01;;;;;;;3.65;3.10;;;;;18.00;99612.00;;;;5066641;28;20207;-84
2022/11/16 01:33:28;;;;;;;4.05;3.65;;;;;18.00;99611.00;;;;5053633;28;20211;-84
2022/11/16 01:35:57;;;;;;;3.88;3.30;;;;;18.00;99614.00;;;;5054654;28;20227;-84
2022/11/16 01:38:24;;;;;;;3.08;2.72;;;;;18.00;99611.00;;;;5050055;28;20222;-83
2022/11/16 01:40:51;;;;;;;3.85;3.33;;;;;18.00;99611.00;;;;5051435;28;20227;-83
2022/11/16 01:43:21;;;;;;;3.30;2.78;;;;;18.00;99606.00;;;;5055463;28;20206;-83
2022/11/16 01:45:49;;;;;;;3.88;3.47;;;;;18.00;99603.00;;;;5069982;28;20202;-83
2022/11/16 01:48:20;;;;;;;3.72;3.25;;;;;18.00;99604.00;;;;5060003;28;20224;-84
2022/11/16 01:50:48;;;;;;;3.83;2.90;;;;;18.00;99602.00;;;;5049575;28;21411;-83
2022/11/16 01:53:17;;;;;;;3.80;3.10;;;;;18.00;99601.00;;;;5052522;28;20196;-83
2022/11/16 01:55:46;;;;;;;3.17;2.88;;;;;18.00;99600.00;;;;5064813;28;20222;-83
2022/11/16 01:58:18;;;;;;;3.83;3.30;;;;;18.00;99595.00;;;;5054786;28;20202;-84
2022/11/16 02:00:45;;;;;;;3.00;2.78;;;;;18.00;99595.00;;;;5065479;28;20230;-82
2022/11/16 02:03:12;;;;;;;3.33;3.03;;;;;18.00;99587.00;;;;5070111;28;20198;-82
2022/11/16 02:05:55;;;;;;;3.10;2.80;;;;;18.00;99591.00;;;;5055635;28;20214;-82
2022/11/16 02:11:56;;;;;;;3.38;3.03;;;;;17.90;99587.00;;;;5050770;28;20308;-81
2022/11/16 02:14:36;;;;;;;3.13;2.83;;;;;18.00;99586.00;;;;5044282;28;20200;-81
2022/11/16 02:17:14;;;;;;;3.17;2.88;;;;;18.10;99582.00;;;;5063116;28;20206;-81
2022/11/16 02:20:21;;;;;;;3.55;3.25;;;;;18.00;99579.00;;;;5054638;28;20206;-82
2022/11/16 02:23:07;;;;;;;3.10;2.80;;;;;18.00;99582.00;;;;5059917;28;20206;-83
2022/11/16 02:25:46;;;;;;;3.50;3.20;;;;;18.10;99576.00;;;;5057929;28;20214;-82
2022/11/16 02:28:28;;;;;;;3.25;2.97;;;;;18.10;99583.00;;;;5057360;28;20199;-82
2022/11/16 02:31:00;;;;;;;3.30;3.03;;;;;18.10;99577.00;;;;5060664;28;20198;-82
2022/11/16 02:33:34;;;;;;;4.65;3.40;;;;;18.10;99581.00;;;;5048691;28;20200;-82
2022/11/16 02:36:14;;;;;;;4.57;3.28;;;;;18.10;99580.00;;;;5104612;27;1249242;-82
2022/11/16 02:38:48;;;;;;;3.20;2.90;;;;;18.10;99573.00;;;;5124590;28;20205;-82
2022/11/16 02:41:20;;;;;;;3.33;3.05;;;;;18.10;99575.00;;;;5123507;28;20602;-82
2022/11/16 02:43:52;;;;;;;3.25;2.95;;;;;18.10;99574.00;;;;5104932;28;20190;-82
2022/11/16 02:46:26;;;;;;;3.20;2.90;;;;;18.10;99577.00;;;;5106129;28;20197;-82
2022/11/16 02:48:57;;;;;;;3.90;2.45;;;;;18.10;99572.00;;;;5107280;28;20217;-82
2022/11/16 02:51:28;;;;;;;3.38;3.08;;;;;18.10;99577.00;;;;5124125;28;20290;-82
2022/11/16 02:54:02;;;;;;;3.03;2.80;;;;;18.10;99577.00;;;;5125802;28;20513;-82
2022/11/16 02:56:30;;;;;;;3.33;3.03;;;;;18.10;99575.00;;;;5126014;28;20196;-84
2022/11/16 02:58:58;;;;;;;3.70;3.35;;;;;18.10;99589.00;;;;5120748;28;20799;-83
2022/11/16 03:01:32;;;;;;;4.40;2.95;;;;;18.10;99583.00;;;;5121774;28;20674;-84
2022/11/16 03:04:05;;;;;;;4.20;3.10;;;;;18.10;99588.00;;;;5117335;28;20204;-84
2022/11/16 03:06:38;;;;;;;3.45;2.97;;;;;18.10;99579.00;;;;5124151;28;20204;-83
2022/11/16 03:09:09;;;;;;;3.42;2.97;;;;;18.10;99588.00;;;;5125932;28;20193;-83
2022/11/16 03:12:01;;;;;;;3.08;2.78;;;;;18.10;99581.00;;;;5124266;28;20201;-84
2022/11/16 03:14:33;;;;;;;3.70;3.28;;;;;18.10;99589.00;;;;5107796;28;20221;-83
2022/11/16 03:17:03;;;;;;;2.92;2.67;;;;;18.10;99589.00;;;;5119058;28;20197;-84
2022/11/16 03:19:36;;;;;;;3.58;3.28;;;;;18.10;99592.00;;;;5123065;28;20193;-84
2022/11/16 03:22:11;;;;;;;3.10;2.78;;;;;18.10;99594.00;;;;5104948;28;20221;-84
2022/11/16 03:24:38;;;;;;;5.32;3.40;;;;;18.10;99593.00;;;;5115493;27;20243;-84
2022/11/16 03:27:11;;;;;;;4.22;3.38;;;;;18.10;99589.00;;;;5112901;27;20213;-84
2022/11/16 03:29:46;;;;;;;4.00;3.60;;;;;18.10;99590.00;;;;5104251;28;20197;-83
2022/11/16 03:32:19;;;;;;;2.72;2.47;;;;;18.10;99592.00;;;;5105688;28;20200;-83
2022/11/16 03:34:57;;;;;;;3.38;3.03;;;;;18.00;99591.00;;;;5107457;28;20239;-83
2022/11/16 03:37:27;;;;;;;3.50;3.17;;;;;18.10;99597.00;;;;5110364;28;20203;-84
2022/11/16 03:39:56;;;;;;;4.85;2.88;;;;;18.00;99600.00;;;;5107593;28;20204;-83
2022/11/16 03:42:26;;;;;;;2.92;2.67;;;;;18.00;99599.00;;;;5112057;28;20197;-83
2022/11/16 03:44:54;;;;;;;2.90;2.67;;;;;18.00;99592.00;;;;5108716;28;20190;-84
2022/11/16 03:47:22;;;;;;;3.88;2.42;;;;;18.00;99595.00;;;;5094629;28;20214;-83
2022/11/16 03:49:49;;;;;;;2.90;2.40;;;;;18.00;99603.00;;;;5102091;28;20532;-83
2022/11/16 03:52:17;;;;;;;3.58;2.28;;;;;17.90;99598.00;;;;5111490;28;20189;-83
2022/11/16 03:54:46;;;;;;;4.15;2.45;;;;;17.90;99604.00;;;;5099983;28;20624;-83
2022/11/16 03:57:16;;;;;;;4.82;2.30;;;;;17.90;99602.00;;;;5091062;28;20205;-83
2022/11/16 03:59:44;;;;;;;2.95;2.30;;;;;17.90;99606.00;;;;5091202;28;20217;-83
2022/11/16 04:02:12;;;;;;;2.63;2.20;;;;;17.90;99610.00;;;;5091131;28;20203;-83
2022/11/16 04:24:12;;;;;;;2.85;1.98;;;;;17.70;99611.00;;;;5094265;28;20678;-82
2022/11/16 04:29:28;;;;;;;3.20;1.67;;;;;17.70;99622.00;;;;5102087;28;20339;-82
2022/11/16 04:40:11;;;;;;;1.90;1.63;;;;;17.60;99618.00;;;;5093354;27;20672;-82
2022/11/16 04:42:39;;;;;;;2.80;1.90;;;;;17.60;99618.00;;;;5091011;28;20666;-82
2022/11/16 04:47:52;;;;;;;2.13;1.55;;;;;17.60;99615.00;;;;5097760;28;20331;-82
2022/11/16 04:50:20;;;;;;;1.40;1.30;;;;;17.60;99619.00;;;;5089268;28;20202;-82
2022/11/16 04:52:47;;;;;;;2.22;1.85;;;;;17.60;99619.00;;;;5090437;28;20201;-82
2022/11/16 04:55:15;;;;;;;2.05;1.77;;;;;17.60;99618.00;;;;5093404;28;20218;-82
2022/11/16 04:57:43;;;;;;;3.03;1.67;;;;;17.50;99622.00;;;;5103746;28;20206;-82
2022/11/16 05:00:12;;;;;;;1.55;1.45;;;;;17.50;99620.00;;;;5089694;28;20210;-81
2022/11/16 05:02:39;;;;;;;2.65;1.75;;;;;17.50;99623.00;;;;5099356;28;20198;-81
2022/11/16 05:05:07;;;;;;;1.80;1.23;;;;;17.50;99627.00;;;;5093276;28;20210;-82
2022/11/16 05:07:34;;;;;;;2.00;1.67;;;;;17.40;99629.00;;;;5089666;28;20213;-82
2022/11/16 05:10:02;;;;;;;2.13;1.90;;;;;17.40;99636.00;;;;5089280;28;20221;-81
2022/11/16 05:12:30;;;;;;;1.98;1.55;;;;;17.40;99637.00;;;;5089709;28;20257;-83
2022/11/16 05:14:59;;;;;;;2.28;1.75;;;;;17.40;99641.00;;;;5098151;28;20217;-83
2022/11/16 05:17:29;;;;;;;2.30;1.95;;;;;17.40;99638.00;;;;5109228;28;20197;-81
2022/11/16 05:22:41;;;;;;;2.80;2.40;;;;;17.30;99639.00;;;;5106640;28;20205;-83
2022/11/16 05:25:10;;;;;;;2.70;1.88;;;;;17.30;99647.00;;;;5101038;28;20197;-81
2022/11/16 05:27:37;;;;;;;2.60;1.80;;;;;17.30;99646.00;;;;5109731;28;20209;-81
2022/11/16 05:30:07;;;;;;;1.98;1.85;;;;;17.20;99646.00;;;;5088790;28;20253;-82
2022/11/16 05:32:35;;;;;;;4.35;2.33;;;;;17.20;99652.00;;;;5089909;28;20582;-81
2022/11/16 05:35:02;;;;;;;3.05;2.33;;;;;17.20;99657.00;;;;5093772;28;20615;-84
2022/11/16 05:37:29;;;;;;;3.40;2.45;;;;;17.20;99667.00;;;;5120188;27;20204;-82
2022/11/16 05:40:00;;;;;;;3.65;2.97;;;;;17.20;99661.00;;;;5105845;27;20226;-82
2022/11/16 05:42:27;;;;;;;5.53;3.08;;;;;17.20;99666.00;;;;5108883;28;20561;-83
2022/11/16 05:44:54;;;;;;;3.90;3.47;;;;;17.20;99663.00;;;;5107635;28;20713;-82
2022/11/16 05:47:23;;;;;;;3.55;3.15;;;;;17.10;99664.00;;;;5107441;28;20746;-83
2022/11/16 05:49:50;;;;;;;4.22;3.83;;;;;17.20;99667.00;;;;5097979;28;20198;-82
2022/11/16 05:52:17;;;;;;;5.00;4.07;;;;;17.10;99666.00;;;;5091812;28;20186;-83
2022/11/16 05:54:45;;;;;;;7.78;4.30;;;;;17.10;99666.00;;;;5097988;28;20572;-83
2022/11/16 05:57:12;;;;;;;5.55;4.50;;;;;17.10;99659.00;;;;5089707;28;20194;-83
2022/11/16 05:59:39;;;;;;;5.78;4.28;;;;;17.10;99665.00;;;;5101089;28;20213;-83
2022/11/16 06:02:06;;;;;;;6.80;4.35;;;;;17.10;99670.00;;;;5088913;28;20186;-83
2022/11/16 06:04:35;;;;;;;4.88;4.28;;;;;17.00;99664.00;;;;5095154;28;20683;-84
2022/11/16 06:07:02;;;;;;;5.63;4.05;;;;;17.00;99661.00;;;;5103711;28;20201;-83
2022/11/16 06:09:29;;;;;;;4.85;4.32;;;;;17.00;99662.00;;;;5104155;28;20656;-83
2022/11/16 06:11:57;;;;;;;5.25;4.03;;;;;17.00;99662.00;;;;5103021;28;20201;-82
2022/11/16 06:14:24;;;;;;;4.57;4.03;;;;;17.00;99661.00;;;;5096258;28;20181;-83
2022/11/16 06:16:51;;;;;;;5.30;4.38;;;;;17.00;99655.00;;;;5094113;28;20240;-83
2022/11/16 06:19:18;;;;;;;5.85;4.03;;;;;17.00;99659.00;;;;5089873;28;20202;-83
2022/11/16 06:21:47;;;;;;;5.80;4.13;;;;;16.90;99669.00;;;;5108630;28;20189;-83
2022/11/16 06:24:14;;;;;;;4.13;3.25;;;;;16.90;99662.00;;;;5105598;28;20600;-82
2022/11/16 06:26:42;;;;;;;4.85;3.63;;;;;16.90;99666.00;;;;5103818;28;20198;-82
2022/11/16 06:29:09;;;;;;;4.57;3.60;;;;;16.90;99671.00;;;;5094261;28;20197;-83
2022/11/16 06:31:36;;;;;;;4.40;3.65;;;;;16.90;99668.00;;;;5092049;28;20195;-83
2022/11/16 06:34:03;;;;;;;5.90;3.67;;;;;16.80;99674.00;;;;5090566;28;20206;-82
2022/11/16 06:36:31;;;;;;;5.15;3.70;;;;;16.80;99675.00;;;;5096913;28;20218;-84
2022/11/16 06:39:00;;;;;;;7.22;3.53;;;;;16.70;99677.00;;;;5095035;28;20201;-79
2022/11/16 06:41:28;;;;;;;7.05;3.83;;;;;16.70;99681.00;;;;5090005;28;20598;-80
2022/11/16 06:43:55;;;;;;;5.72;3.30;;;;;16.70;99677.00;;;;5088843;28;20205;-79
2022/11/16 06:46:24;;;;;;;4.70;3.50;;;;;16.70;99682.00;;;;5093976;28;20213;-80
2022/11/16 06:48:51;;;;;;;3.20;2.88;;;;;16.60;99683.00;;;;5102992;28;20699;-79
2022/11/16 06:51:18;;;;;;;5.65;2.92;;;;;16.60;99695.00;;;;5104855;28;20205;-79
2022/11/16 06:53:46;;;;;;;3.55;2.72;;;;;16.60;99687.00;;;;5093058;28;20200;-79
2022/11/16 06:56:15;;;;;;;6.38;3.03;;;;;16.50;99690.00;;;;5104970;28;20217;-81
2022/11/16 06:58:43;;;;;;;5.35;2.28;;;;;16.50;99687.00;;;;5101368;28;20542;-82
2022/11/16 07:01:11;;;;;;;2.97;2.50;;;;;16.40;99692.00;;;;5090413;28;20202;-81
2022/11/16 07:03:39;;;;;;;3.70;2.88;;;;;16.40;99693.00;;;;5103561;28;20186;-82
2022/11/16 07:06:08;;;;;;;2.55;2.35;;;;;16.30;99698.00;;;;5095937;28;20206;-83
2022/11/16 07:08:35;;;;;;;3.60;1.98;;;;;16.30;99704.00;;;;5107129;28;20194;-80
2022/11/16 07:11:04;;;;;;;4.03;2.00;;;;;16.30;99699.00;;;;5106598;28;20201;-79
2022/11/16 07:13:33;;;;;;;3.95;2.47;;;;;16.20;99702.00;;;;5104073;28;20671;-79
2022/11/16 07:16:05;;;;;;;5.15;2.25;;;;;16.20;99709.00;;;;5094619;28;20226;-79
2022/11/16 07:18:34;;;;;;;4.60;2.30;;;;;16.20;99714.00;;;;5105945;28;20189;-80
2022/11/16 07:21:06;;;;;;;3.05;2.00;;;;;16.10;99704.00;;;;5089714;28;20246;-80
2022/11/16 07:23:33;;;;;;;2.75;1.90;;;;;16.10;99714.00;;;;5089571;28;20327;-80
2022/11/16 07:26:01;;;;;;;2.45;2.00;;;;;16.10;99721.00;;;;5095007;28;20206;-79
2022/11/16 07:28:29;;;;;;;3.20;2.28;;;;;16.00;99722.00;;;;5090076;28;20198;-80
2022/11/16 07:31:01;;;;;;;2.95;2.08;;;;;16.00;99715.00;;;;5092295;28;20213;-80
2022/11/16 07:33:29;;;;;;;2.88;1.95;;;;;16.00;99724.00;;;;5091057;28;20190;-80
2022/11/16 07:36:01;;;;;;;6.20;1.63;;;;;15.90;99728.00;;;;5100544;28;20226;-81
2022/11/16 07:38:29;;;;;;;1.88;1.45;;;;;15.90;99731.00;;;;5108786;28;20225;-81
2022/11/16 07:41:00;;;;;;;3.95;1.88;;;;;15.80;99736.00;;;;5090905;28;20690;-81
2022/11/16 07:43:30;;;;;;;3.80;1.75;;;;;15.80;99740.00;;;;5096818;27;20213;-81
2022/11/16 07:46:02;;;;;;;3.95;1.50;;;;;15.80;99739.00;;;;5101833;28;20201;-81
2022/11/16 07:48:31;;;;;;;2.35;1.58;;;;;15.80;99742.00;;;;5099775;28;20222;-81
2022/11/16 07:51:01;;;;;;;3.97;1.30;;;;;15.70;99752.00;;;;5091797;28;20209;-81
2022/11/16 07:53:29;;;;;;;6.13;1.38;;;;;15.70;99746.00;;;;5091873;28;20263;-81
2022/11/16 07:55:57;;;;;;;5.15;1.13;;;;;15.70;99755.00;;;;5096665;28;20220;-82
2022/11/16 07:58:25;;;;;;;4.13;1.13;;;;;15.70;99752.00;;;;5100089;27;20685;-81
2022/11/16 08:00:52;;;;;;;2.25;1.30;;;;;15.70;99755.00;;;;5099943;28;20203;-81
2022/11/16 08:03:21;;;;;;;1.85;1.20;;;;;15.70;99757.00;;;;5106096;28;20200;-81
2022/11/16 08:05:48;;;;;;;3.03;1.20;;;;;15.70;99750.00;;;;5092457;28;20567;-81
2022/11/16 08:08:15;;;;;;;1.40;0.82;;;;;15.70;99761.00;;;;5118989;27;20189;-81
2022/11/16 08:10:43;;;;;;;1.35;1.00;;;;;15.70;99769.00;;;;5091463;28;20233;-81
2022/11/16 08:13:10;;;;;;;2.30;1.20;;;;;15.70;99767.00;;;;5096521;27;20193;-80
2022/11/16 08:15:38;;;;;;;1.83;1.20;;;;;15.70;99770.00;;;;5107846;27;20212;-80
2022/11/16 08:18:05;;;;;;;3.28;1.20;;;;;15.70;99773.00;;;;5119597;27;20416;-80
2022/11/16 08:20:35;;;;;;;2.03;1.08;;;;;15.70;99773.00;;;;5101902;28;20226;-80
2022/11/16 08:23:03;;;;;;;2.35;1.10;;;;;15.80;99778.00;;;;5098081;28;20215;-81
2022/11/16 08:25:30;;;;;;;5.78;1.60;;;;;15.80;99774.00;;;;5090988;28;20267;-80
2022/11/16 08:27:57;;;;;;;5.60;1.42;;;;;15.80;99772.00;;;;5102466;27;20205;-81
2022/11/16 08:30:24;;;;;;;2.45;1.33;;;;;15.80;99774.00;;;;5105551;28;20214;-80
2022/11/16 08:32:52;;;;;;;5.50;2.30;;;;;15.80;99780.00;;;;5109929;28;20189;-80
2022/11/16 08:35:19;;;;;;;3.28;1.90;;;;;15.80;99784.00;;;;5109990;28;20225;-80
2022/11/16 08:37:48;;;;;;;2.53;1.67;;;;;15.80;99779.00;;;;5101657;27;20202;-81
2022/11/16 08:40:15;;;;;;;3.20;1.35;;;;;15.90;99783.00;;;;5100619;28;20194;-80
2022/11/16 08:42:43;;;;;;;4.82;1.63;;;;;15.90;99780.00;;;;5094283;28;20195;-80
2022/11/16 08:45:10;;;;;;;3.38;1.83;;;;;15.90;99780.00;;;;5107163;28;20194;-80
2022/11/16 08:47:39;;;;;;;5.30;1.70;;;;;16.00;99781.00;;;;5102404;28;20229;-79
2022/11/16 08:50:07;;;;;;;2.08;1.58;;;;;16.00;99783.00;;;;5090400;28;20208;-79
2022/11/16 08:52:34;;;;;;;5.05;1.67;;;;;16.00;99794.00;;;;5091904;28;20206;-80
2022/11/16 08:55:02;;;;;;;3.92;1.88;;;;;16.10;99791.00;;;;5090372;28;20190;-80
2022/11/16 08:57:30;;;;;;;5.07;1.73;;;;;16.10;99787.00;;;;5092037;28;20598;-80
2022/11/16 08:59:57;;;;;;;4.50;1.80;;;;;16.10;99791.00;;;;5091090;28;20702;-80
2022/11/16 09:02:25;;;;;;;2.78;1.50;;;;;16.10;99791.00;;;;5091975;28;20198;-80
2022/11/16 09:04:52;;;;;;;2.80;1.65;;;;;16.20;99788.00;;;;5103662;28;20206;-81
2022/11/16 09:07:20;;;;;;;3.30;1.60;;;;;16.20;99791.00;;;;5090677;28;20206;-81
2022/11/16 09:09:47;;;;;;;1.95;1.48;;;;;16.20;99785.00;;;;5094256;28;20209;-81
2022/11/16 09:12:16;;;;;;;4.05;1.33;;;;;16.20;99791.00;;;;5101605;27;20626;-81
2022/11/16 09:14:43;;;;;;;2.13;1.17;;;;;16.30;99788.00;;;;5087897;28;20206;-81
2022/11/16 09:17:11;;;;;;;6.65;1.38;;;;;16.30;99788.00;;;;5100557;28;20217;-81
2022/11/16 09:19:38;;;;;;;5.03;1.73;;;;;16.30;99791.00;;;;5095625;28;20197;-82
2022/11/16 09:22:05;;;;;;;3.22;1.20;;;;;16.30;99798.00;;;;5089966;28;20194;-80
2022/11/16 09:24:33;;;;;;;1.98;1.30;;;;;16.30;99796.00;;;;5093171;28;20625;-82
2022/11/16 09:27:01;;;;;;;4.32;1.50;;;;;16.40;99799.00;;;;5098218;28;20214;-80
2022/11/16 09:29:29;;;;;;;3.90;1.67;;;;;16.40;99800.00;;;;5096314;28;20204;-81
2022/11/16 09:31:57;;;;;;;4.63;1.50;;;;;16.50;99800.00;;;;5098334;27;20195;-80
2022/11/16 09:34:24;;;;;;;6.97;1.88;;;;;16.50;99799.00;;;;5099520;28;20220;-81
2022/11/16 09:36:52;;;;;;;5.68;1.95;;;;;16.60;99805.00;;;;5097975;28;20753;-80
2022/11/16 09:39:19;;;;;;;5.82;1.73;;;;;16.60;99807.00;;;;5099291;28;20655;-79
2022/11/16 09:41:58;;;;;;;2.92;1.23;;;;;16.60;99813.00;;;;5094927;28;20205;-80
2022/11/16 09:44:48;;;;;;;3.97;1.17;;;;;16.60;99803.00;;;;5090134;28;20201;-80
2022/11/16 09:47:20;;;;;;;5.20;1.27;;;;;16.70;99803.00;;;;5090139;28;20202;-80
2022/11/16 09:49:51;;;;;;;4.00;1.38;;;;;16.80;99820.00;;;;5088080;28;20227;-81
2022/11/16 09:52:26;;;;;;;6.05;1.77;;;;;16.80;99812.00;;;;5087407;28;20247;-79
2022/11/16 09:54:55;;;;;;;8.50;1.52;;;;;16.90;99809.00;;;;5087768;28;20201;-81
2022/11/16 09:57:29;;;;;;;3.35;1.45;;;;;16.90;99823.00;;;;5091547;28;20706;-81
2022/11/16 10:00:01;;;;;;;3.45;1.23;;;;;17.00;99809.00;;;;5088915;28;20197;-80
2022/11/16 10:02:34;;;;;;;3.38;1.23;;;;;17.00;99807.00;;;;5088911;28;20614;-80
2022/11/16 10:05:07;;;;;;;4.60;1.30;;;;;17.00;99811.00;;;;5091508;28;20678;-79
2022/11/16 10:07:40;;;;;;;4.15;1.38;;;;;17.00;99803.00;;;;5091140;28;20206;-79
2022/11/16 10:10:12;;;;;;;1.60;0.77;;;;;17.10;99801.00;;;;5088278;28;20206;-79
2022/11/16 10:12:45;;;;;;;5.10;1.27;;;;;17.10;99803.00;;;;5089215;28;20197;-79
2022/11/16 10:15:41;;;;;;;2.80;1.17;;;;;17.10;99809.00;;;;5087469;28;20198;-79
2022/11/16 10:18:20;;;;;;;3.85;1.30;;;;;17.10;99811.00;;;;5089344;28;20218;-79
2022/11/16 10:21:06;;;;;;;1.75;0.88;;;;;17.10;99807.00;;;;5098054;28;20198;-79
2022/11/16 10:23:49;;;;;;;1.75;1.02;;;;;17.10;99811.00;;;;5089471;28;20540;-79
2022/11/16 10:26:26;;;;;;;3.03;1.10;;;;;17.20;99810.00;;;;5088900;28;20822;-78
2022/11/16 10:29:03;;;;;;;3.42;1.00;;;;;17.30;99811.00;;;;5088512;28;20194;-79
2022/11/16 10:31:47;;;;;;;2.47;0.80;;;;;17.30;99811.00;;;;5097779;28;20194;-78
2022/11/16 10:34:19;;;;;;;4.38;1.23;;;;;17.40;99808.00;;;;5094664;28;20198;-78
2022/11/16 10:36:47;;;;;;;3.00;1.08;;;;;17.50;99811.00;;;;5087108;28;20687;-78
2022/11/16 10:39:17;;;;;;;7.68;1.45;;;;;17.50;99821.00;;;;5096773;28;20197;-78
2022/11/16 10:41:48;;;;;;;3.00;0.90;;;;;17.60;99813.00;;;;5089127;28;20205;-78
2022/11/16 10:44:20;;;;;;;3.03;1.10;;;;;17.60;99812.00;;;;5096105;28;20231;-78
2022/11/16 10:46:58;;;;;;;4.72;1.02;;;;;17.70;99805.00;;;;5095117;28;20690;-78
2022/11/16 10:49:33;;;;;;;3.55;0.80;;;;;17.70;99810.00;;;;5087075;28;20222;-78
2022/11/16 10:52:00;;;;;;;2.92;1.00;;;;;17.80;99809.00;;;;5093393;28;20200;-79
2022/11/16 10:54:27;;;;;;;8.88;0.90;;;;;17.80;99817.00;;;;5091459;28;20247;-78
2022/11/16 10:57:03;;;;;;;3.90;1.02;;;;;17.80;99820.00;;;;5097347;28;20230;-78
2022/11/16 10:59:42;;;;;;;7.32;1.10;;;;;17.70;99819.00;;;;5098703;27;20201;-79
2022/11/16 11:02:30;;;;;;;3.83;1.38;;;;;17.70;99811.00;;;;5101334;28;20240;-78
2022/11/16 11:05:04;;;;;;;2.75;0.98;;;;;17.80;99810.00;;;;5096459;28;22062;-78
2022/11/16 11:07:33;;;;;;;1.73;0.63;;;;;17.90;99808.00;;;;5092299;28;20594;-78
2022/11/16 11:10:00;;;;;;;4.53;1.08;;;;;17.90;99804.00;;;;5095976;28;20205;-78
2022/11/16 11:12:39;;;;;;;3.25;0.68;;;;;17.90;99806.00;;;;5099257;27;20197;-78
2022/11/16 11:15:22;;;;;;;2.67;1.10;;;;;17.80;99801.00;;;;5104950;28;20234;-78
2022/11/16 11:18:09;;;;;;;3.45;1.10;;;;;17.90;99798.00;;;;5103142;28;20201;-77
2022/11/16 11:20:37;;;;;;;1.15;0.70;;;;;18.00;99792.00;;;;5099223;28;20202;-78
2022/11/16 11:23:13;;;;;;;4.20;1.17;;;;;17.90;99794.00;;;;5092139;27;20210;-77
2022/11/16 11:25:48;;;;;;;2.20;0.50;;;;;18.00;99787.00;;;;5105275;28;20186;-77
2022/11/16 11:28:20;;;;;;;4.63;0.82;;;;;18.10;99787.00;;;;5094440;27;20198;-78
2022/11/16 11:30:58;;;;;;;2.72;0.80;;;;;18.10;99782.00;;;;5094038;28;20788;-78
2022/11/16 11:33:30;;;;;;;4.15;1.00;;;;;18.20;99776.00;;;;5091539;28;20208;-78
2022/11/16 11:36:01;;;;;;;2.22;0.88;;;;;18.20;99775.00;;;;5091329;28;20222;-79
2022/11/16 11:38:29;;;;;;;7.80;1.65;;;;;18.30;99777.00;;;;5097657;28;20690;-78
2022/11/16 11:40:59;;;;;;;3.45;1.17;;;;;18.30;99778.00;;;;5107323;27;20190;-78
2022/11/16 11:43:27;;;;;;;4.75;0.75;;;;;18.40;99778.00;;;;5093002;28;20746;-78
2022/11/16 11:46:02;;;;;;;1.63;0.65;;;;;18.30;99776.00;;;;5094949;28;20198;-78
2022/11/16 11:48:37;;;;;;;2.40;0.85;;;;;18.40;99780.00;;;;5094648;28;20253;-76
2022/11/16 11:51:11;;;;;;;4.47;1.55;;;;;18.40;99779.00;;;;5101920;28;20201;-77
2022/11/16 11:53:55;;;;;;;5.35;0.68;;;;;18.40;99775.00;;;;5103686;28;20225;-76
2022/11/16 11:56:22;;;;;;;5.18;0.95;;;;;18.50;99780.00;;;;5090520;28;20281;-77
2022/11/16 11:58:51;;;;;;;3.20;0.98;;;;;18.50;99785.00;;;;5093323;28;20190;-78
2022/11/16 12:01:47;;;;;;;2.78;0.80;;;;;18.40;99784.00;;;;5096695;28;20254;-78
2022/11/16 12:04:50;;;;;;;5.57;0.80;;;;;18.40;99790.00;;;;5087413;28;20202;-77
2022/11/16 12:07:27;;;;;;;2.53;0.68;;;;;18.40;99776.00;;;;5101760;28;20208;-77
2022/11/16 12:10:04;;;;;;;3.05;0.80;;;;;18.40;99783.00;;;;5090395;28;20193;-77
2022/11/16 12:12:43;;;;;;;4.28;1.27;;;;;18.30;99774.00;;;;5100588;28;20202;-78
2022/11/16 12:15:42;;;;;;;4.90;1.17;;;;;18.20;99782.00;;;;5089086;28;20217;-78
2022/11/16 12:18:30;;;;;;;2.83;0.75;;;;;18.20;99781.00;;;;5089192;28;20650;-77
2022/11/16 12:21:05;;;;;;;4.93;1.10;;;;;18.20;99775.00;;;;5090516;28;20202;-79
2022/11/16 12:23:49;;;;;;;3.38;0.80;;;;;18.20;99776.00;;;;5089793;28;20220;-77
2022/11/16 12:26:26;;;;;;;3.47;1.02;;;;;18.20;99777.00;;;;5091669;28;20195;-76
2022/11/16 12:29:06;;;;;;;3.88;0.98;;;;;18.30;99762.00;;;;5103348;27;20201;-77
2022/11/16 12:32:05;;;;;;;3.72;1.33;;;;;18.30;99763.00;;;;5094826;28;20186;-77
2022/11/16 12:34:51;;;;;;;5.72;0.90;;;;;18.40;99759.00;;;;5093350;28;20230;-77
2022/11/16 12:37:25;;;;;;;6.50;0.93;;;;;18.50;99750.00;;;;5096310;28;20270;-77
2022/11/16 12:40:11;;;;;;;4.05;0.80;;;;;18.50;99751.00;;;;5096694;28;20670;-77
2022/11/16 12:42:45;;;;;;;2.75;0.80;;;;;18.60;99762.00;;;;5091476;28;20194;-78
2022/11/16 12:45:48;;;;;;;7.60;0.90;;;;;18.70;99744.00;;;;5089828;28;20216;-76
2022/11/16 12:48:30;;;;;;;4.15;1.35;;;;;18.90;99750.00;;;;5083276;28;20247;-76
2022/11/16 12:51:04;;;;;;;4.95;1.73;;;;;19.20;99754.00;;;;5089598;28;20229;-77
2022/11/16 12:53:51;;;;;;;3.53;1.70;;;;;19.50;99749.00;;;;5089662;28;20668;-77
2022/11/16 12:56:29;;;;;;;5.18;1.27;;;;;20.00;99746.00;;;;5092999;28;20193;-77
2022/11/16 12:59:16;;;;;;;6.25;1.20;;;;;20.60;99749.00;;;;5091466;28;20854;-77
2022/11/16 13:01:51;;;;;;;3.20;0.82;;;;;21.10;99750.00;;;;5093928;28;20574;-77
2022/11/16 13:04:23;;;;;;;5.63;1.38;;;;;21.60;99753.00;;;;5103757;28;20876;-77
2022/11/16 13:06:55;;;;;;;3.28;1.13;;;;;22.10;99750.00;;;;5098055;28;20735;-77
2022/11/16 13:09:27;;;;;;;3.60;1.20;;;;;22.50;99746.00;;;;5092081;28;20198;-77
2022/11/16 13:11:57;;;;;;;1.83;0.82;;;;;22.90;99735.00;;;;5089577;28;20198;-77
2022/11/16 13:14:29;;;;;;;4.15;1.20;;;;;23.30;99733.00;;;;5088779;28;20194;-78
2022/11/16 13:16:59;;;;;;;3.20;0.90;;;;;23.70;99728.00;;;;5092304;28;20705;-77
2022/11/16 13:19:27;;;;;;;3.60;1.00;;;;;24.00;99736.00;;;;5087794;28;20194;-78
2022/11/16 13:22:02;;;;;;;2.50;0.50;;;;;24.30;99734.00;;;;5092901;28;20717;-77